KALW/ALW METAR and TAF weather

Enter ICAO airport designator
Station Type Date Time Source
KALW METAR 2022/01/29 11:53 UTC NOAA

KALW 291153Z AUTO 09003KT 10SM OVC015 M03/M06 A3041 RMK AO2 SLP311 T10281056 11017 21028 56009


Station Type Date Time Source
KALW Decoded METAR 2022/01/29 11:53 UTC NOAA

WALLA WALLA REGIONAL AIRPORT, WA, United States (KALW) 46-06N 118-17W 363M
Jan 29, 2022 - 06:53 AM EST / 2022.01.29 1153 UTC
Wind: from the E (090 degrees) at 3 MPH (3 KT):0
Visibility: 10 mile(s):0
Sky conditions: overcast
Temperature: 27.0 F (-2.8 C)
Dew Point: 21.9 F (-5.6 C)
Relative Humidity: 81%
Pressure (altimeter): 30.41 in. Hg (1029 hPa)
Pressure tendency: 0.03 inches (0.9 hPa) lower than three hours ago
ob: KALW 291153Z AUTO 09003KT 10SM OVC015 M03/M06 A3041 RMK AO2 SLP311 T10281056 11017 21028 56009
cycle: 12

Station Type Date Time Source
KALW TAF 2022/01/29 12:24 UTC NOAA

TAF KALW 291123Z 2912/3012 VRB05KT P6SM OVC015
FM291600 VRB02KT P6SM OVC009
FM292000 28003KT P6SM OVC010
FM292300 VRB02KT P6SM OVC250
FM300800 00000KT P6SM OVC025
FM301000 30002KT P6SM OVC250

Example: see airport list